Change the Weather History Date:

Friday, June 28, 2013

  Actual Average (KDFW) Record (KDFW)
Temperature  
Mean Temperature 88 °F 84 °F  
Max Temperature 100 °F 94 °F 112 °F (1980)
Min Temperature 77 °F 74 °F 61 °F (1958)
Degree Days  
Heating Degree Days 0 0  
Month to date heating degree days 0  
Since 1 June heating degree days 0  
Since 1 July heating degree days 2284  
Cooling Degree Days 23 19  
Month to date cooling degree days 454  
Year to date cooling degree days 876  
Since 1 June cooling degree days 454  
Growing Degree Days 38 (Base 50)    
Moisture  
Dew Point 68 °F    
Average Humidity 54    
Maximum Humidity 71    
Minimum Humidity 37    
Precipitation  
Precipitation 0.00 in 0.10 in 1.20 in (1984)
Month to date precipitation 3.59  
Year to date precipitation 19.84  
Sea Level Pressure  
Sea Level Pressure 29.88 in    
Wind  
Wind Speed 6 mph (SW)    
Max Wind Speed 13 mph    
Max Gust Speed 18 mph    
Visibility 10 miles    
Events      
T = Trace of Precipitation, MM = Missing Value Source: NWS Daily Summary

Daily Weather History Graph

Daily Weather History Graph

Search for Another Location

Airport or City:

Trip Planner

Search our weather history database for the weather conditions in past years. The results will help you decide how hot, cold, wet, or windy it might be!

Date:

Astronomy

Jun. 28, 2013 Rise Set
Actual Time 6:19 AM CDT 8:38 PM CDT
Civil Twilight 5:51 AM CDT 9:06 PM CDT
Nautical Twilight 5:16 AM CDT 9:41 PM CDT
Astronomical Twilight 4:37 AM CDT 10:20 PM CDT
Moon No Moon Rise 12:08 PM CDT (6/28)
Length of Visible Light 15h 15m
Length of Day
14h 18m
Waning Gibbous, 66% of the Moon is Illuminated
Jun 28
Waning Gibbous
Jun 29
Last Quarter
Jul 8
New
Jul 15
First Quarter
Jul 22
Full

Hourly Weather History & Observations

Time (CDT) Temp. Heat Index Dew Point Humidity Pressure Visibility Wind Dir Wind Speed Gust Speed Precip Events Conditions
12:15 AM 83.7 °F 85.8 °F 65.8 °F 55% 29.94 in 10.0 mi SE 5.8 mph - N/A   Clear
12:35 AM 83.8 °F 86.0 °F 66.2 °F 55% 29.94 in 10.0 mi SSE 4.6 mph - N/A   Clear
12:55 AM 83.3 °F 85.5 °F 66.2 °F 56% 29.93 in 10.0 mi SSE 6.9 mph - N/A   Clear
1:35 AM 82.0 °F 84.3 °F 66.4 °F 59% 29.92 in 10.0 mi South 5.8 mph - N/A   Clear
1:55 AM 81.1 °F 83.4 °F 66.7 °F 61% 29.92 in 10.0 mi South 5.8 mph - N/A   Clear
2:15 AM 80.8 °F 82.9 °F 66.4 °F 61% 29.92 in 10.0 mi SSE 4.6 mph - N/A   Clear
2:35 AM 80.2 °F 82.5 °F 66.7 °F 63% 29.92 in 10.0 mi South 3.5 mph - N/A   Clear
2:55 AM 80.6 °F 82.8 °F 66.6 °F 62% 29.92 in 10.0 mi SSE 5.8 mph - N/A   Clear
3:15 AM 80.4 °F 82.6 °F 66.4 °F 62% 29.92 in 10.0 mi SSE 4.6 mph - N/A   Clear
3:35 AM 79.3 °F - 67.1 °F 66% 29.92 in 10.0 mi Calm Calm - N/A   Clear
3:55 AM 78.8 °F - 66.6 °F 66% 29.91 in 10.0 mi South 3.5 mph - N/A   Clear
4:15 AM 79.7 °F - 66.4 °F 64% 29.91 in 10.0 mi SSW 4.6 mph - N/A   Clear
4:35 AM 79.7 °F - 66.7 °F 64% 29.90 in 10.0 mi South 4.6 mph - N/A   Clear
4:55 AM 78.8 °F - 66.7 °F 66% 29.89 in 10.0 mi South 5.8 mph - N/A   Clear
5:15 AM 78.6 °F - 66.9 °F 67% 29.89 in 10.0 mi South 6.9 mph - N/A   Clear
5:35 AM 78.3 °F - 66.9 °F 68% 29.88 in 10.0 mi South 9.2 mph - N/A   Clear
5:55 AM 77.9 °F - 66.6 °F 68% 29.90 in 10.0 mi SSW 4.6 mph - N/A   Clear
6:15 AM 77.9 °F - 66.6 °F 68% 29.92 in 10.0 mi SSW 4.6 mph - N/A   Clear
6:35 AM 78.4 °F - 66.2 °F 66% 29.92 in 10.0 mi SSW 5.8 mph - N/A   Clear
6:55 AM 78.3 °F - 66.6 °F 67% 29.92 in 10.0 mi South 6.9 mph - N/A   Clear
7:55 AM 78.3 °F - 68.0 °F 71% 29.94 in 10.0 mi Calm Calm - N/A   Clear
8:15 AM 79.2 °F - 68.0 °F 69% 29.94 in 10.0 mi South 5.8 mph - N/A   Clear
8:35 AM 79.7 °F - 68.0 °F 67% 29.94 in 10.0 mi South 6.9 mph - N/A   Clear
8:55 AM 82.2 °F 85.3 °F 68.5 °F 63% 29.94 in 10.0 mi SW 6.9 mph - N/A   Clear
9:15 AM 84.0 °F 86.8 °F 67.3 °F 57% 29.94 in 10.0 mi SW 6.9 mph - N/A   Clear
9:35 AM 84.0 °F 86.8 °F 67.1 °F 57% 29.94 in 10.0 mi SSW 5.8 mph - N/A   Clear
9:55 AM 83.5 °F 86.2 °F 67.5 °F 58% 29.93 in 10.0 mi SW 8.1 mph - N/A   Clear
10:15 AM 83.7 °F 87.0 °F 68.4 °F 60% 29.93 in 10.0 mi SSW 6.9 mph - N/A   Clear
10:35 AM 83.8 °F 87.0 °F 68.4 °F 59% 29.93 in 10.0 mi SSW 3.5 mph - N/A   Clear
10:55 AM 84.6 °F 88.5 °F 69.1 °F 60% 29.93 in 10.0 mi SW 5.8 mph - N/A   Clear
11:15 AM 85.1 °F 89.1 °F 69.1 °F 59% 29.93 in 10.0 mi SSW 5.8 mph - N/A   Clear
11:35 AM 86.0 °F 89.7 °F 68.9 °F 56% 29.92 in 10.0 mi SSW 8.1 mph - N/A   Clear
11:55 AM 86.9 °F 90.3 °F 67.8 °F 53% 29.92 in 10.0 mi SW 8.1 mph - N/A   Clear
12:15 PM 90.1 °F 94.0 °F 68.2 °F 48% 29.91 in 10.0 mi SW 10.4 mph - N/A   Clear
12:35 PM 90.7 °F 95.0 °F 68.4 °F 48% 29.91 in 10.0 mi WSW 8.1 mph - N/A   Clear
12:55 PM 90.7 °F 95.0 °F 68.5 °F 48% 29.90 in 10.0 mi WSW 8.1 mph - N/A   Clear
1:15 PM 91.9 °F 95.4 °F 67.5 °F 44% 29.89 in 10.0 mi WSW 8.1 mph - N/A   Clear
1:35 PM 92.8 °F 96.1 °F 66.4 °F 42% 29.89 in 10.0 mi WSW 3.5 mph - N/A   Clear
1:55 PM 93.4 °F 96.6 °F 66.6 °F 41% 29.88 in 10.0 mi West 5.8 mph - N/A   Clear
2:15 PM 95.4 °F 99.1 °F 66.7 °F 39% 29.88 in 10.0 mi West 5.8 mph - N/A   Clear
2:35 PM 96.1 °F 99.9 °F 66.9 °F 38% 29.87 in 10.0 mi Calm Calm - N/A   Clear
2:55 PM 97.0 °F 101.6 °F 67.6 °F 38% 29.87 in 10.0 mi West 4.6 mph - N/A   Clear
3:15 PM 98.2 °F 104.1 °F 68.4 °F 38% 29.85 in 10.0 mi NW 5.8 mph - N/A   Clear
3:35 PM 98.4 °F 105.1 °F 69.8 °F 39% 29.84 in 10.0 mi North 3.5 mph - N/A   Clear
3:55 PM 98.6 °F 105.5 °F 70.0 °F 39% 29.84 in 10.0 mi NNE 4.6 mph - N/A   Clear
4:15 PM 99.3 °F 107.7 °F 71.1 °F 40% 29.82 in 10.0 mi Calm Calm - N/A   Clear
4:35 PM 99.9 °F 108.9 °F 71.2 °F 40% 29.82 in 10.0 mi North 12.7 mph 18.4 mph N/A   Clear
4:55 PM 99.7 °F 107.8 °F 70.5 °F 39% 29.82 in 10.0 mi North 9.2 mph - N/A   Clear
5:15 PM 99.5 °F 107.4 °F 70.5 °F 39% 29.82 in 10.0 mi NNE 9.2 mph 17.3 mph N/A   Clear
5:35 PM 98.8 °F 105.8 °F 69.6 °F 39% 29.82 in 10.0 mi North 11.5 mph 17.3 mph N/A   Clear
5:55 PM 98.6 °F 104.1 °F 68.2 °F 37% 29.82 in 10.0 mi North 10.4 mph - N/A   Clear
6:15 PM 98.2 °F 103.4 °F 67.8 °F 37% 29.82 in 10.0 mi NNW 9.2 mph - N/A   Clear
6:35 PM 97.7 °F 103.6 °F 68.9 °F 39% 29.82 in 10.0 mi North 11.5 mph 17.3 mph N/A   Clear
6:55 PM 96.8 °F 103.8 °F 70.2 °F 42% 29.82 in 10.0 mi North 9.2 mph - N/A   Clear
7:15 PM 95.9 °F 102.5 °F 70.3 °F 43% 29.82 in 10.0 mi NNE 9.2 mph - N/A   Clear
7:35 PM 94.5 °F 102.0 °F 71.4 °F 47% 29.82 in 10.0 mi North 6.9 mph - N/A   Clear
7:55 PM 93.4 °F 99.2 °F 69.6 °F 46% 29.82 in 10.0 mi NNE 8.1 mph - N/A   Clear
8:15 PM 91.8 °F 96.0 °F 68.0 °F 46% 29.82 in 10.0 mi North 6.9 mph - N/A   Clear
8:35 PM 89.8 °F 93.3 °F 67.8 °F 48% 29.83 in 10.0 mi North 6.9 mph - N/A   Clear
8:55 PM 87.8 °F 91.1 °F 67.5 °F 51% 29.84 in 10.0 mi North 6.9 mph - N/A   Clear
9:15 PM 86.5 °F 89.3 °F 67.1 °F 52% 29.84 in 10.0 mi North 6.9 mph - N/A   Clear
9:35 PM 85.5 °F 88.2 °F 67.1 °F 54% 29.84 in 10.0 mi North 5.8 mph - N/A   Clear
9:55 PM 84.6 °F 87.1 °F 66.7 °F 55% 29.84 in 10.0 mi North 6.9 mph - N/A   Clear
10:15 PM 84.2 °F 86.6 °F 66.4 °F 55% 29.84 in 10.0 mi North 4.6 mph - N/A   Clear
10:35 PM 83.7 °F 86.0 °F 66.2 °F 56% 29.85 in 10.0 mi North 3.5 mph - N/A   Clear
10:55 PM 82.6 °F 84.9 °F 66.4 °F 58% 29.85 in 10.0 mi Calm Calm - N/A   Clear
11:15 PM 81.9 °F 84.2 °F 66.9 °F 60% 29.85 in 10.0 mi Calm Calm - N/A   Clear
11:35 PM 81.0 °F 83.4 °F 67.3 °F 63% 29.85 in 10.0 mi Calm Calm - N/A   Clear
11:55 PM 80.6 °F 82.7 °F 66.2 °F 61% 29.85 in 10.0 mi Calm Calm - N/A   Clear